Time,TemperatureF,DewpointF,PressureIn,WindDirection,WindDirectionDegrees,WindSpeedMPH,WindSpeedGustMPH,Humidity,HourlyPrecipIn,Conditions,Clouds,dailyrainin,SoftwareType,DateUTC
2013-02-28 00:12:00,50.0,48.0,30.39,North,11,0.0,1.0,93,0.00,,,0.01,weatherlink.com 1.10,2013-02-28 08:12:00,
2013-02-28 00:27:00,49.9,48.0,30.40,North,11,0.0,0.0,93,0.00,,,0.01,weatherlink.com 1.10,2013-02-28 08:27:00,
2013-02-28 00:42:00,49.6,48.0,30.40,North,11,0.0,0.0,93,0.00,,,0.00,weatherlink.com 1.10,2013-02-28 08:42:00,
2013-02-28 00:57:00,49.6,48.0,30.40,North,11,0.0,0.0,93,0.00,,,0.00,weatherlink.com 1.10,2013-02-28 08:57:00,
2013-02-28 01:12:00,49.7,48.0,30.41,North,11,0.0,0.0,93,0.00,,,0.00,weatherlink.com 1.10,2013-02-28 09:12:00,
2013-02-28 01:27:00,49.8,48.0,30.41,North,11,0.0,0.0,93,0.00,,,0.00,weatherlink.com 1.10,2013-02-28 09:27:00,
2013-02-28 01:42:00,49.6,48.0,30.41,NNE,15,0.0,0.0,93,0.00,,,0.00,weatherlink.com 1.10,2013-02-28 09:42:00,
2013-02-28 01:57:00,49.5,48.0,30.41,NNE,28,0.0,0.0,93,0.00,,,0.00,weatherlink.com 1.10,2013-02-28 09:57:00,
2013-02-28 02:12:00,49.2,47.0,30.41,NNE,30,0.0,2.0,92,0.00,,,0.00,weatherlink.com 1.10,2013-02-28 10:12:00,
2013-02-28 02:27:00,48.7,47.0,30.41,NNE,32,0.0,1.0,93,0.00,,,0.00,weatherlink.com 1.10,2013-02-28 10:27:00,
2013-02-28 02:42:00,48.2,46.0,30.41,NNE,28,0.0,1.0,93,0.00,,,0.00,weatherlink.com 1.10,2013-02-28 10:42:00,
2013-02-28 02:57:00,48.1,46.0,30.41,NNE,26,0.0,0.0,93,0.00,,,0.00,weatherlink.com 1.10,2013-02-28 10:57:00,
2013-02-28 03:12:00,48.1,47.0,30.40,NNE,27,0.0,0.0,94,0.00,,,0.00,weatherlink.com 1.10,2013-02-28 11:12:00,
2013-02-28 03:27:00,47.8,46.0,30.40,NNE,31,0.0,0.0,94,0.00,,,0.00,weatherlink.com 1.10,2013-02-28 11:27:00,
2013-02-28 03:42:00,47.6,46.0,30.40,NNE,30,0.0,3.0,94,0.00,,,0.00,weatherlink.com 1.10,2013-02-28 11:42:00,
2013-02-28 03:57:00,47.5,46.0,30.41,NNE,28,0.0,1.0,94,0.00,,,0.00,weatherlink.com 1.10,2013-02-28 11:57:00,
2013-02-28 04:12:00,47.4,46.0,30.41,NNE,24,0.0,0.0,94,0.00,,,0.00,weatherlink.com 1.10,2013-02-28 12:12:00,
2013-02-28 04:27:00,47.4,46.0,30.41,NNE,28,0.0,5.0,94,0.00,,,0.00,weatherlink.com 1.10,2013-02-28 12:27:00,
2013-02-28 04:42:00,47.6,46.0,30.41,NNE,31,0.0,4.0,95,0.00,,,0.00,weatherlink.com 1.10,2013-02-28 12:42:00,
2013-02-28 04:57:00,47.9,46.0,30.42,NNE,28,0.0,6.0,94,0.00,,,0.00,weatherlink.com 1.10,2013-02-28 12:57:00,
2013-02-28 05:12:00,47.6,46.0,30.42,NNE,12,0.0,5.0,95,0.00,,,0.00,weatherlink.com 1.10,2013-02-28 13:12:00,
2013-02-28 05:27:00,47.6,46.0,30.42,NNE,32,0.0,3.0,94,0.00,,,0.00,weatherlink.com 1.10,2013-02-28 13:27:00,
2013-02-28 05:42:00,47.5,46.0,30.43,NNE,30,0.0,2.0,95,0.00,,,0.00,weatherlink.com 1.10,2013-02-28 13:42:00,
2013-02-28 05:57:00,47.7,46.0,30.43,NNE,33,0.0,1.0,95,0.00,,,0.00,weatherlink.com 1.10,2013-02-28 13:57:00,
2013-02-28 06:12:00,47.6,46.0,30.43,NNE,28,0.0,5.0,95,0.00,,,0.00,weatherlink.com 1.10,2013-02-28 14:12:00,
2013-02-28 06:27:00,47.5,46.0,30.43,NNE,29,0.0,1.0,95,0.00,,,0.00,weatherlink.com 1.10,2013-02-28 14:27:00,
2013-02-28 06:42:00,47.2,46.0,30.43,NNE,18,3.0,5.0,95,0.00,,,0.00,weatherlink.com 1.10,2013-02-28 14:42:00,
2013-02-28 06:57:00,47.1,46.0,30.43,NE,38,0.0,7.0,95,0.00,,,0.00,weatherlink.com 1.10,2013-02-28 14:57:00,
2013-02-28 07:12:00,47.0,46.0,30.43,ENE,65,4.0,4.0,95,0.00,,,0.00,weatherlink.com 1.10,2013-02-28 15:12:00,
2013-02-28 07:27:00,46.8,46.0,30.44,NNE,33,0.0,4.0,95,0.00,,,0.00,weatherlink.com 1.10,2013-02-28 15:27:00,
2013-02-28 07:42:00,47.2,46.0,30.45,NNE,25,0.0,3.0,95,0.00,,,0.00,weatherlink.com 1.10,2013-02-28 15:42:00,
2013-02-28 07:57:00,47.7,46.0,30.45,NE,36,0.0,4.0,95,0.00,,,0.00,weatherlink.com 1.10,2013-02-28 15:57:00,
2013-02-28 08:12:00,47.9,47.0,30.46,NNE,30,0.0,0.0,95,0.00,,,0.00,weatherlink.com 1.10,2013-02-28 16:12:00,
2013-02-28 08:27:00,48.2,47.0,30.46,NNE,24,0.0,0.0,95,0.00,,,0.00,weatherlink.com 1.10,2013-02-28 16:27:00,
2013-02-28 08:42:00,49.1,48.0,30.46,NNE,24,0.0,0.0,95,0.00,,,0.00,weatherlink.com 1.10,2013-02-28 16:42:00,
2013-02-28 08:57:00,50.3,49.0,30.46,NNE,29,0.0,0.0,95,0.00,,,0.00,weatherlink.com 1.10,2013-02-28 16:57:00,
2013-02-28 09:13:00,51.3,49.0,30.46,SSW,205,0.0,1.0,93,0.00,,,0.00,weatherlink.com 1.10,2013-02-28 17:13:00,
2013-02-28 09:28:00,52.1,50.0,30.46,SSW,199,1.0,5.0,92,0.00,,,0.00,weatherlink.com 1.10,2013-02-28 17:28:00,
2013-02-28 09:43:00,52.7,51.0,30.47,SSW,202,3.0,6.0,92,0.00,,,0.00,weatherlink.com 1.10,2013-02-28 17:43:00,
2013-02-28 09:58:00,53.5,51.0,30.47,South,188,4.0,7.0,90,0.00,,,0.00,weatherlink.com 1.10,2013-02-28 17:58:00,
2013-02-28 10:13:00,53.1,51.0,30.48,SSW,211,5.0,7.0,91,0.00,,,0.00,weatherlink.com 1.10,2013-02-28 18:13:00,
2013-02-28 10:28:00,53.7,51.0,30.48,SSW,198,4.0,7.0,90,0.00,,,0.00,weatherlink.com 1.10,2013-02-28 18:28:00,
2013-02-28 10:43:00,53.0,51.0,30.48,SSW,207,7.0,7.0,91,0.00,,,0.00,weatherlink.com 1.10,2013-02-28 18:43:00,
2013-02-28 10:58:00,53.1,51.0,30.48,SW,228,4.0,6.0,92,0.00,,,0.00,weatherlink.com 1.10,2013-02-28 18:58:00,
2013-02-28 11:13:00,53.3,51.0,30.48,SSW,203,7.0,7.0,92,0.00,,,0.00,weatherlink.com 1.10,2013-02-28 19:13:00,
2013-02-28 11:28:00,52.6,51.0,30.48,SSW,195,7.0,9.0,93,0.00,,,0.00,weatherlink.com 1.10,2013-02-28 19:28:00,
2013-02-28 11:43:00,52.7,51.0,30.47,South,190,6.0,7.0,92,0.00,,,0.00,weatherlink.com 1.10,2013-02-28 19:43:00,
2013-02-28 11:58:00,50.8,49.0,30.47,SW,219,7.0,8.0,93,0.00,,,0.00,weatherlink.com 1.10,2013-02-28 19:58:00,
2013-02-28 12:13:00,50.0,49.0,30.47,SW,216,7.0,10.0,95,0.00,,,0.00,weatherlink.com 1.10,2013-02-28 20:13:00,
2013-02-28 12:28:00,50.7,49.0,30.46,SSW,201,5.0,7.0,95,0.00,,,0.00,weatherlink.com 1.10,2013-02-28 20:28:00,
2013-02-28 12:43:00,52.0,51.0,30.45,SSW,200,6.0,9.0,95,0.00,,,0.00,weatherlink.com 1.10,2013-02-28 20:43:00,
2013-02-28 12:58:00,52.9,51.0,30.45,South,169,7.0,8.0,92,0.00,,,0.00,weatherlink.com 1.10,2013-02-28 20:58:00,
2013-02-28 13:13:00,55.0,52.0,30.44,South,189,6.0,9.0,89,0.00,,,0.00,weatherlink.com 1.10,2013-02-28 21:13:00,
2013-02-28 13:28:00,56.2,52.0,30.44,South,188,6.0,11.0,87,0.00,,,0.00,weatherlink.com 1.10,2013-02-28 21:28:00,
2013-02-28 13:43:00,58.1,53.0,30.43,SW,218,3.0,10.0,82,0.00,,,0.00,weatherlink.com 1.10,2013-02-28 21:43:00,
2013-02-28 13:58:00,59.5,53.0,30.43,SSW,198,3.0,7.0,80,0.00,,,0.00,weatherlink.com 1.10,2013-02-28 21:58:00,
2013-02-28 14:13:00,61.3,54.0,30.43,WSW,250,4.0,8.0,76,0.00,,,0.00,weatherlink.com 1.10,2013-02-28 22:13:00,
2013-02-28 14:28:00,62.2,54.0,30.42,SE,134,2.0,7.0,75,0.00,,,0.00,weatherlink.com 1.10,2013-02-28 22:28:00,
2013-02-28 14:43:00,62.7,54.0,30.42,SSW,203,2.0,8.0,73,0.00,,,0.00,weatherlink.com 1.10,2013-02-28 22:43:00,
2013-02-28 14:58:00,61.9,53.0,30.42,SSW,205,4.0,7.0,72,0.00,,,0.00,weatherlink.com 1.10,2013-02-28 22:58:00,
2013-02-28 15:13:00,63.1,53.0,30.41,SSW,202,5.0,7.0,70,0.00,,,0.00,weatherlink.com 1.10,2013-02-28 23:13:00,
2013-02-28 15:28:00,62.9,54.0,30.41,West,277,0.0,9.0,72,0.00,,,0.00,weatherlink.com 1.10,2013-02-28 23:28:00,
2013-02-28 15:43:00,63.5,54.0,30.41,ENE,65,0.0,8.0,71,0.00,,,0.00,weatherlink.com 1.10,2013-02-28 23:43:00,
2013-02-28 15:58:00,62.5,53.0,30.41,South,178,0.0,7.0,71,0.00,,,0.00,weatherlink.com 1.10,2013-02-28 23:58:00,
2013-02-28 16:13:00,60.9,53.0,30.41,SW,215,6.0,7.0,74,0.00,,,0.00,weatherlink.com 1.10,2013-03-01 00:13:00,
2013-02-28 16:28:00,60.5,52.0,30.41,SSE,165,0.0,6.0,74,0.00,,,0.00,weatherlink.com 1.10,2013-03-01 00:28:00,
2013-02-28 16:43:00,61.8,53.0,30.41,SSW,197,4.0,5.0,72,0.00,,,0.00,weatherlink.com 1.10,2013-03-01 00:43:00,
2013-02-28 16:58:00,58.8,52.0,30.41,SSW,194,2.0,6.0,79,0.00,,,0.00,weatherlink.com 1.10,2013-03-01 00:58:00,
2013-02-28 17:13:00,60.0,52.0,30.41,SE,128,0.0,4.0,76,0.00,,,0.00,weatherlink.com 1.10,2013-03-01 01:13:00,
2013-02-28 17:28:00,59.1,51.0,30.41,SSW,205,0.0,3.0,75,0.00,,,0.00,weatherlink.com 1.10,2013-03-01 01:28:00,
2013-02-28 17:43:00,56.8,50.0,30.41,SSW,211,0.0,2.0,79,0.00,,,0.00,weatherlink.com 1.10,2013-03-01 01:43:00,
2013-02-28 17:58:00,55.2,50.0,30.42,SSW,209,0.0,0.0,81,0.00,,,0.00,weatherlink.com 1.10,2013-03-01 01:58:00,
2013-02-28 18:13:00,53.9,49.0,30.42,North,351,0.0,0.0,84,0.00,,,0.00,weatherlink.com 1.10,2013-03-01 02:13:00,
2013-02-28 18:28:00,53.6,49.0,30.42,North,10,1.0,3.0,84,0.00,,,0.00,weatherlink.com 1.10,2013-03-01 02:28:00,
2013-02-28 18:43:00,53.0,50.0,30.43,NNE,30,0.0,1.0,89,0.00,,,0.00,weatherlink.com 1.10,2013-03-01 02:43:00,
2013-02-28 18:58:00,52.8,50.0,30.43,NNE,17,0.0,4.0,89,0.00,,,0.00,weatherlink.com 1.10,2013-03-01 02:58:00,
2013-02-28 19:13:00,52.2,49.0,30.44,NNE,28,0.0,4.0,90,0.00,,,0.00,weatherlink.com 1.10,2013-03-01 03:13:00,
2013-02-28 19:28:00,51.9,49.0,30.44,NNE,28,0.0,1.0,90,0.00,,,0.00,weatherlink.com 1.10,2013-03-01 03:28:00,
2013-02-28 19:43:00,51.4,49.0,30.44,NNE,32,0.0,3.0,90,0.00,,,0.00,weatherlink.com 1.10,2013-03-01 03:43:00,
2013-02-28 19:58:00,51.0,49.0,30.44,NNE,17,3.0,7.0,91,0.00,,,0.00,weatherlink.com 1.10,2013-03-01 03:58:00,
2013-02-28 20:13:00,51.3,49.0,30.45,NNE,19,2.0,5.0,91,0.00,,,0.00,weatherlink.com 1.10,2013-03-01 04:13:00,
2013-02-28 20:28:00,50.8,48.0,30.45,NNE,26,0.0,5.0,90,0.00,,,0.00,weatherlink.com 1.10,2013-03-01 04:28:00,
2013-02-28 20:43:00,51.0,49.0,30.45,NNE,19,0.0,3.0,91,0.00,,,0.00,weatherlink.com 1.10,2013-03-01 04:43:00,
2013-02-28 20:58:00,50.9,48.0,30.45,NNE,25,0.0,2.0,91,0.00,,,0.00,weatherlink.com 1.10,2013-03-01 04:58:00,
2013-02-28 21:13:00,51.0,49.0,30.46,NNE,27,0.0,1.0,91,0.00,,,0.00,weatherlink.com 1.10,2013-03-01 05:13:00,
2013-02-28 21:28:00,50.9,48.0,30.46,NNE,26,0.0,0.0,91,0.00,,,0.00,weatherlink.com 1.10,2013-03-01 05:28:00,
2013-02-28 21:43:00,50.4,48.0,30.46,NNE,30,0.0,0.0,91,0.00,,,0.00,weatherlink.com 1.10,2013-03-01 05:43:00,
2013-02-28 21:58:00,50.3,48.0,30.46,NNE,32,0.0,1.0,92,0.00,,,0.00,weatherlink.com 1.10,2013-03-01 05:58:00,
2013-02-28 22:13:00,50.1,48.0,30.46,NNE,26,0.0,1.0,92,0.00,,,0.00,weatherlink.com 1.10,2013-03-01 06:13:00,
2013-02-28 22:28:00,50.1,48.0,30.46,NNE,17,0.0,1.0,92,0.00,,,0.00,weatherlink.com 1.10,2013-03-01 06:28:00,
2013-02-28 22:43:00,50.3,48.0,30.46,NNE,32,0.0,1.0,92,0.00,,,0.00,weatherlink.com 1.10,2013-03-01 06:43:00,
2013-02-28 22:58:00,49.6,47.0,30.46,NNE,32,0.0,2.0,92,0.00,,,0.00,weatherlink.com 1.10,2013-03-01 06:58:00,
2013-02-28 23:13:00,50.1,48.0,30.46,NNE,24,0.0,4.0,93,0.00,,,0.00,weatherlink.com 1.10,2013-03-01 07:13:00,
2013-02-28 23:28:00,50.6,49.0,30.45,NNE,24,1.0,5.0,93,0.00,,,0.00,weatherlink.com 1.10,2013-03-01 07:28:00,
2013-02-28 23:44:00,50.4,48.0,30.45,NNE,32,0.0,2.0,92,0.00,,,0.00,weatherlink.com 1.10,2013-03-01 07:44:00,
2013-02-28 23:59:00,50.4,49.0,30.45,NNE,26,0.0,1.0,93,0.00,,,0.00,weatherlink.com 1.10,2013-03-01 07:59:00,